EGGP/LPL METAR and TAF weather

Enter ICAO airport designator
Station Type Date Time Source
EGGP METAR 2019/06/20 06:50 UTC NOAA

EGGP 200650Z 27013KT 9999 5000SW RA SCT014 BKN020 BKN030 12/10 Q1009


Station Type Date Time Source
EGGP Decoded METAR 2019/06/20 06:50 UTC NOAA

Liverpool Airport , United Kingdom (EGGP) 53-20N 002-51W
Jun 20, 2019 - 02:50 AM EDT / 2019.06.20 0650 UTC
Wind: from the W (270 degrees) at 15 MPH (13 KT):0
Visibility: greater than 7 mile(s):0
Sky conditions: mostly cloudy
Weather: rain
Temperature: 53 F (12 C)
Dew Point: 50 F (10 C)
Relative Humidity: 87%
Pressure (altimeter): 29.80 in. Hg (1009 hPa)
ob: EGGP 200650Z 27013KT 9999 5000SW RA SCT014 BKN020 BKN030 12/10 Q1009
cycle: 7

Station Type Date Time Source
EGGP TAF 2019/06/20 06:06 UTC NOAA

TAF EGGP 200456Z 2006/2106 27008KT 9999 SCT020 PROB40
TEMPO 2006/2009 4000 RADZ BKN014
TEMPO 2009/2020 7000 SHRA

Example: see airport list